Time;durP1;ratioP1;P1;durP2;ratioP2;P2;SDS_P1;SDS_P2;PMS_P1;PMS_P2;Temp;Humidity;BMP_temperature;BMP_pressure;BME280_temperature;BME280_humidity;BME280_pressure;Samples;Min_cycle;Max_cycle;Signal;HPM_P1;HPM_P2
2021/12/28 00:00:32;;;;;;;29.85;18.85;;;4.00;99.90;;;;;;5043571;28;20041;-75
2021/12/28 00:02:58;;;;;;;27.40;18.48;;;3.90;99.90;;;;;;5060626;28;20074;-75
2021/12/28 00:05:26;;;;;;;26.65;16.25;;;4.00;99.90;;;;;;5061757;28;20053;-74
2021/12/28 00:07:52;;;;;;;31.65;18.33;;;4.00;99.90;;;;;;5061160;28;20048;-75
2021/12/28 00:10:19;;;;;;;29.85;18.10;;;4.00;99.90;;;;;;5064337;28;20037;-72
2021/12/28 00:12:46;;;;;;;27.05;16.17;;;4.00;99.90;;;;;;5026512;28;20410;-74
2021/12/28 00:15:31;;;;;;;32.25;18.80;;;4.00;99.90;;;;;;5020255;28;20052;-74
2021/12/28 00:18:04;;;;;;;32.57;19.07;;;4.00;99.90;;;;;;5042679;28;20478;-75
2021/12/28 00:20:43;;;;;;;28.90;18.33;;;3.90;99.90;;;;;;5034345;28;20071;-75
2021/12/28 00:23:18;;;;;;;29.92;18.15;;;3.90;99.90;;;;;;5034175;28;20413;-73
2021/12/28 00:25:49;;;;;;;37.55;19.15;;;3.90;99.90;;;;;;5022124;28;20041;-73
2021/12/28 00:28:15;;;;;;;35.45;18.88;;;4.10;99.90;;;;;;5027528;28;20128;-75
2021/12/28 00:30:41;;;;;;;33.55;19.75;;;3.90;99.90;;;;;;5065269;28;20483;-75
2021/12/28 00:33:07;;;;;;;36.85;20.25;;;4.00;99.90;;;;;;5066211;28;20045;-72
2021/12/28 00:35:41;;;;;;;31.75;19.73;;;3.90;99.90;;;;;;5040636;28;20488;-75
2021/12/28 00:38:11;;;;;;;40.85;21.35;;;3.90;99.90;;;;;;5037228;28;20397;-73
2021/12/28 00:40:37;;;;;;;41.95;21.27;;;3.90;99.90;;;;;;5008984;28;20033;-75
2021/12/28 00:43:04;;;;;;;39.88;20.35;;;4.00;99.90;;;;;;5020952;28;20040;-74
2021/12/28 00:45:30;;;;;;;42.53;22.25;;;3.90;99.90;;;;;;5032107;28;20164;-72
2021/12/28 00:47:56;;;;;;;43.00;23.05;;;3.90;99.90;;;;;;5040804;28;20348;-74
2021/12/28 00:50:24;;;;;;;42.30;22.55;;;3.90;99.90;;;;;;5035160;28;20101;-72
2021/12/28 00:52:49;;;;;;;38.92;21.35;;;3.90;99.90;;;;;;5063239;28;20041;-75
2021/12/28 00:55:18;;;;;;;41.65;22.73;;;3.90;99.90;;;;;;5032786;28;20070;-75
2021/12/28 00:57:45;;;;;;;41.58;22.60;;;4.00;99.90;;;;;;5038970;28;20033;-74
2021/12/28 01:00:15;;;;;;;32.53;19.20;;;4.00;99.90;;;;;;5044840;28;20094;-75
2021/12/28 01:02:40;;;;;;;49.00;24.60;;;4.00;99.90;;;;;;5062058;28;20106;-74
2021/12/28 01:05:08;;;;;;;42.35;23.02;;;4.00;99.90;;;;;;5046099;28;20094;-74
2021/12/28 01:07:34;;;;;;;43.80;22.88;;;4.00;99.90;;;;;;5027090;28;20120;-73
2021/12/28 01:10:00;;;;;;;56.72;25.23;;;3.90;99.90;;;;;;5029030;28;20426;-75
2021/12/28 01:12:26;;;;;;;53.42;26.10;;;4.00;99.90;;;;;;5056186;28;20044;-73
2021/12/28 01:14:51;;;;;;;53.05;26.60;;;4.00;99.90;;;;;;5025893;28;20033;-75
2021/12/28 01:17:17;;;;;;;50.22;25.13;;;4.00;99.90;;;;;;5019515;28;20116;-75
2021/12/28 01:19:43;;;;;;;56.78;27.20;;;4.00;99.90;;;;;;5034495;28;20032;-75
2021/12/28 01:22:09;;;;;;;59.53;26.77;;;4.00;99.90;;;;;;5058290;28;20139;-74
2021/12/28 01:24:34;;;;;;;63.92;28.23;;;4.00;99.90;;;;;;5021093;28;20055;-76
2021/12/28 01:27:00;;;;;;;64.00;28.20;;;4.00;99.90;;;;;;5035529;28;20041;-75
2021/12/28 01:29:27;;;;;;;59.17;28.65;;;4.00;99.90;;;;;;5046206;28;20380;-74
2021/12/28 01:31:53;;;;;;;72.20;30.17;;;4.00;99.90;;;;;;5038301;28;20040;-74
2021/12/28 01:34:19;;;;;;;76.20;30.55;;;4.10;99.90;;;;;;5043465;28;20074;-76
2021/12/28 01:36:45;;;;;;;73.82;32.15;;;4.10;99.90;;;;;;5055664;28;20455;-74
2021/12/28 01:39:12;;;;;;;83.00;32.90;;;4.10;99.90;;;;;;5057700;28;20624;-74
2021/12/28 01:41:38;;;;;;;90.60;33.72;;;4.20;99.90;;;;;;5042970;28;20060;-74
2021/12/28 01:44:06;;;;;;;108.88;35.88;;;4.30;99.90;;;;;;5017382;28;20057;-73
2021/12/28 01:46:33;;;;;;;122.35;39.20;;;4.30;99.90;;;;;;5043517;28;20101;-73
2021/12/28 01:48:59;;;;;;;106.80;36.95;;;4.30;99.90;;;;;;5041048;28;21675;-74
2021/12/28 01:51:26;;;;;;;118.80;39.83;;;4.40;99.90;;;;;;5028279;28;20121;-73
2021/12/28 01:53:58;;;;;;;140.25;40.35;;;4.40;99.90;;;;;;5060418;28;20045;-75
2021/12/28 01:56:31;;;;;;;140.32;42.13;;;4.40;99.90;;;;;;5060906;28;20046;-75
2021/12/28 01:58:57;;;;;;;155.95;43.20;;;4.40;99.90;;;;;;5054727;28;20452;-75
2021/12/28 02:01:25;;;;;;;163.77;44.05;;;4.50;99.90;;;;;;5061918;28;20041;-75
2021/12/28 02:03:51;;;;;;;185.43;46.70;;;4.40;99.90;;;;;;5043112;28;20084;-74
2021/12/28 02:06:18;;;;;;;171.60;47.25;;;4.50;99.90;;;;;;5068208;28;20036;-75
2021/12/28 02:08:45;;;;;;;244.90;52.65;;;4.50;99.90;;;;;;5068909;28;20334;-75
2021/12/28 02:11:12;;;;;;;211.50;50.75;;;4.50;99.90;;;;;;5031184;28;20120;-74
2021/12/28 02:13:38;;;;;;;150.40;44.30;;;4.60;99.90;;;;;;5017783;28;20168;-74
2021/12/28 02:16:04;;;;;;;218.18;51.05;;;4.60;99.90;;;;;;5035906;28;20068;-74
2021/12/28 02:18:32;;;;;;;213.52;49.95;;;4.70;99.90;;;;;;5052868;28;20057;-75
2021/12/28 02:20:59;;;;;;;137.32;45.65;;;4.60;99.90;;;;;;5030701;28;20037;-73
2021/12/28 02:23:25;;;;;;;249.20;50.97;;;4.70;99.90;;;;;;5022056;28;20056;-76
2021/12/28 02:25:51;;;;;;;293.38;55.97;;;4.80;99.90;;;;;;5053425;28;20037;-75
2021/12/28 02:28:17;;;;;;;366.83;59.90;;;4.80;99.90;;;;;;5033064;28;20053;-74
2021/12/28 02:30:45;;;;;;;275.55;54.90;;;4.90;99.90;;;;;;5024804;28;20052;-73
2021/12/28 02:33:11;;;;;;;176.15;47.88;;;4.90;99.90;;;;;;5020168;28;20041;-76
2021/12/28 02:35:38;;;;;;;322.98;58.20;;;4.90;99.90;;;;;;5039117;28;20314;-75
2021/12/28 02:38:06;;;;;;;365.77;58.30;;;4.90;99.90;;;;;;5024229;28;20025;-74
2021/12/28 02:40:33;;;;;;;207.98;52.58;;;5.00;99.90;;;;;;5022390;28;20048;-75
2021/12/28 02:43:00;;;;;;;453.73;62.55;;;5.00;99.90;;;;;;5023282;28;20549;-74
2021/12/28 02:45:29;;;;;;;339.17;59.88;;;5.00;99.90;;;;;;5037831;28;20053;-74
2021/12/28 02:47:55;;;;;;;263.30;53.22;;;5.00;99.90;;;;;;5059007;28;20033;-74
2021/12/28 02:50:28;;;;;;;210.18;52.08;;;5.10;99.90;;;;;;5020264;28;20127;-74
2021/12/28 02:52:54;;;;;;;271.48;54.92;;;5.10;99.90;;;;;;5023854;28;20033;-74
2021/12/28 02:55:23;;;;;;;281.17;55.88;;;5.10;99.90;;;;;;5063965;28;20095;-75
2021/12/28 02:57:55;;;;;;;275.15;55.75;;;5.10;99.90;;;;;;5064133;28;20060;-72
2021/12/28 03:00:40;;;;;;;424.23;62.50;;;5.10;99.90;;;;;;5033495;28;20457;-72
2021/12/28 03:03:11;;;;;;;304.92;56.60;;;5.20;99.90;;;;;;5061914;28;20037;-71
2021/12/28 03:05:39;;;;;;;223.57;51.78;;;5.20;99.90;;;;;;5037712;28;20056;-72
2021/12/28 03:08:05;;;;;;;364.33;58.95;;;5.20;99.90;;;;;;5041434;28;20033;-74
2021/12/28 03:10:31;;;;;;;264.75;56.03;;;5.20;99.90;;;;;;5030001;28;20044;-74
2021/12/28 03:12:56;;;;;;;311.95;60.50;;;5.30;99.90;;;;;;5019895;28;20487;-73
2021/12/28 03:15:22;;;;;;;546.05;65.60;;;5.20;99.90;;;;;;5025823;28;20132;-72
2021/12/28 03:17:48;;;;;;;535.65;69.80;;;5.30;99.90;;;;;;5077161;28;20056;-73
2021/12/28 03:20:15;;;;;;;378.63;58.97;;;5.30;99.90;;;;;;5046869;28;20060;-72
2021/12/28 03:22:41;;;;;;;522.45;68.60;;;5.30;99.90;;;;;;5044206;28;20206;-73
2021/12/28 03:25:08;;;;;;;481.38;66.95;;;5.30;99.90;;;;;;5072511;28;20069;-72
2021/12/28 03:27:33;;;;;;;656.60;76.25;;;5.40;99.90;;;;;;5037619;28;20063;-73
2021/12/28 03:30:00;;;;;;;305.23;58.47;;;5.40;99.90;;;;;;5050391;28;20037;-72
2021/12/28 03:32:26;;;;;;;383.65;60.40;;;5.40;99.90;;;;;;5050601;28;20046;-75
2021/12/28 03:34:51;;;;;;;484.58;66.30;;;5.40;99.90;;;;;;5018651;28;20396;-74
2021/12/28 03:37:17;;;;;;;552.22;69.28;;;5.40;99.90;;;;;;5043729;28;20422;-74
2021/12/28 03:39:42;;;;;;;535.40;70.57;;;5.40;99.90;;;;;;5054453;28;20045;-75
2021/12/28 03:42:08;;;;;;;527.25;69.70;;;5.50;99.90;;;;;;5023809;28;20082;-75
2021/12/28 03:44:35;;;;;;;399.55;61.60;;;5.40;99.90;;;;;;5060112;28;20129;-74
2021/12/28 03:47:02;;;;;;;445.42;65.72;;;5.40;99.90;;;;;;5027848;28;20053;-75
2021/12/28 03:49:28;;;;;;;478.77;64.18;;;5.40;99.90;;;;;;5021404;28;20122;-73
2021/12/28 03:51:53;;;;;;;339.95;59.38;;;5.50;99.90;;;;;;5012619;28;20055;-73
2021/12/28 03:54:19;;;;;;;685.65;79.03;;;5.50;99.90;;;;;;5032018;28;20045;-74
2021/12/28 03:56:45;;;;;;;451.05;66.45;;;5.50;99.90;;;;;;5034967;28;20036;-73
2021/12/28 03:59:10;;;;;;;475.85;68.00;;;5.40;99.90;;;;;;5030934;28;20518;-76
2021/12/28 04:01:36;;;;;;;458.35;67.15;;;5.50;99.90;;;;;;5013555;28;20079;-75
2021/12/28 04:07:44;;;;;;;495.35;66.38;;;5.40;99.90;;;;;;5035494;28;20043;-73
2021/12/28 04:10:11;;;;;;;490.35;66.18;;;5.50;99.90;;;;;;5030112;28;20033;-74
2021/12/28 04:12:38;;;;;;;461.35;62.80;;;5.50;99.90;;;;;;5065126;28;20474;-73
2021/12/28 04:15:07;;;;;;;431.50;63.33;;;5.60;99.90;;;;;;5050691;28;20477;-72
2021/12/28 04:17:33;;;;;;;481.63;66.28;;;5.60;99.90;;;;;;5057663;28;20041;-74
2021/12/28 04:19:59;;;;;;;464.30;66.38;;;5.50;99.90;;;;;;5033885;28;20037;-74
2021/12/28 04:22:25;;;;;;;414.27;60.80;;;5.60;99.90;;;;;;5059381;28;20452;-74
2021/12/28 04:24:50;;;;;;;317.75;59.67;;;5.60;99.90;;;;;;5023140;28;20033;-74
2021/12/28 04:27:16;;;;;;;400.75;61.10;;;5.50;99.90;;;;;;5015135;28;20075;-75
2021/12/28 04:29:42;;;;;;;462.48;65.00;;;5.50;99.90;;;;;;5025329;28;20067;-74
2021/12/28 04:32:08;;;;;;;451.00;64.70;;;5.50;99.90;;;;;;5054242;28;20149;-73
2021/12/28 04:34:33;;;;;;;440.85;64.50;;;5.60;99.90;;;;;;5015638;28;20124;-75
2021/12/28 04:36:59;;;;;;;470.27;64.20;;;5.60;99.90;;;;;;5047770;28;20037;-75
2021/12/28 04:39:25;;;;;;;580.45;73.13;;;5.60;99.90;;;;;;5054490;28;20396;-74
2021/12/28 04:41:51;;;;;;;441.63;64.47;;;5.60;99.90;;;;;;5012493;28;20093;-74
2021/12/28 04:44:23;;;;;;;564.92;70.65;;;5.60;99.90;;;;;;5035568;28;20132;-74
2021/12/28 04:46:49;;;;;;;517.20;66.15;;;5.60;99.90;;;;;;5016340;28;20050;-74
2021/12/28 04:49:16;;;;;;;412.00;63.78;;;5.60;99.90;;;;;;5023472;28;20076;-73
2021/12/28 04:51:43;;;;;;;513.13;66.63;;;5.60;99.90;;;;;;5011965;28;20086;-72
2021/12/28 04:54:12;;;;;;;420.10;61.67;;;5.60;99.90;;;;;;5019569;28;20065;-73
2021/12/28 04:56:39;;;;;;;421.35;61.38;;;5.60;99.90;;;;;;5015826;28;20459;-73
2021/12/28 04:59:04;;;;;;;497.15;66.85;;;5.70;99.90;;;;;;5046653;28;20075;-75
2021/12/28 05:01:30;;;;;;;390.60;61.17;;;5.70;99.90;;;;;;5020628;28;20037;-74
2021/12/28 05:03:55;;;;;;;386.17;60.80;;;5.60;99.90;;;;;;5017152;28;20045;-73
2021/12/28 05:06:21;;;;;;;421.35;64.15;;;5.70;99.90;;;;;;5011564;28;20052;-74
2021/12/28 05:08:47;;;;;;;338.80;59.75;;;5.70;99.90;;;;;;5019891;28;20053;-75
2021/12/28 05:11:14;;;;;;;490.38;67.78;;;5.70;99.90;;;;;;5032232;28;20046;-74
2021/12/28 05:13:40;;;;;;;490.95;65.10;;;5.70;99.90;;;;;;5014191;28;20434;-75
2021/12/28 05:16:06;;;;;;;436.60;62.50;;;5.70;99.90;;;;;;5017051;28;20048;-74
2021/12/28 05:18:32;;;;;;;457.10;63.05;;;5.70;99.90;;;;;;5026881;28;20390;-73
2021/12/28 05:20:58;;;;;;;479.00;65.47;;;5.80;99.90;;;;;;5000271;28;20045;-75
2021/12/28 05:23:24;;;;;;;410.98;62.00;;;5.70;99.90;;;;;;5025776;28;20033;-74
2021/12/28 05:25:49;;;;;;;292.45;52.65;;;5.70;99.90;;;;;;4997664;28;20528;-75
2021/12/28 05:28:15;;;;;;;280.88;55.70;;;5.70;99.90;;;;;;5049240;28;20374;-74
2021/12/28 05:30:41;;;;;;;359.50;56.90;;;5.70;99.90;;;;;;5027285;28;20063;-74
2021/12/28 05:33:06;;;;;;;325.80;58.25;;;5.70;99.90;;;;;;5028463;28;20057;-74
2021/12/28 05:35:32;;;;;;;302.52;53.95;;;5.60;99.90;;;;;;5038322;28;20045;-75
2021/12/28 05:37:58;;;;;;;284.13;53.67;;;5.50;99.90;;;;;;5059498;28;20569;-74
2021/12/28 05:40:24;;;;;;;307.00;48.42;;;5.50;99.90;;;;;;5018833;28;20061;-73
2021/12/28 05:42:49;;;;;;;292.88;51.05;;;5.40;99.90;;;;;;5003124;28;20038;-72
2021/12/28 05:45:15;;;;;;;390.58;57.17;;;5.40;99.90;;;;;;5018616;28;20089;-75
2021/12/28 05:47:41;;;;;;;314.67;50.42;;;5.40;99.90;;;;;;5001933;28;20461;-75
2021/12/28 05:50:09;;;;;;;289.48;51.60;;;5.30;99.90;;;;;;5015243;28;20077;-74
2021/12/28 05:52:34;;;;;;;264.98;49.85;;;5.30;99.90;;;;;;5050839;28;20539;-74
2021/12/28 05:55:00;;;;;;;256.55;47.60;;;5.30;99.90;;;;;;5008086;28;20049;-74
2021/12/28 05:57:26;;;;;;;219.05;46.00;;;5.30;99.90;;;;;;5023024;28;20076;-75
2021/12/28 05:59:51;;;;;;;226.23;48.63;;;5.30;99.90;;;;;;5052977;28;20037;-75
2021/12/28 06:02:17;;;;;;;221.07;47.47;;;5.30;99.90;;;;;;5028848;28;20044;-74
2021/12/28 06:04:43;;;;;;;192.10;44.55;;;5.20;99.90;;;;;;5024808;28;20096;-74
2021/12/28 06:07:08;;;;;;;193.82;45.83;;;5.30;99.90;;;;;;5045927;28;20046;-73
2021/12/28 06:09:34;;;;;;;174.05;42.83;;;5.20;99.90;;;;;;5053533;28;20037;-74
2021/12/28 06:12:00;;;;;;;203.43;47.00;;;5.20;99.90;;;;;;5031765;28;20034;-76
2021/12/28 06:14:26;;;;;;;159.60;39.47;;;5.20;99.90;;;;;;5022801;28;20034;-75
2021/12/28 06:16:51;;;;;;;162.45;41.05;;;5.20;99.90;;;;;;5048352;28;20050;-75
2021/12/28 06:19:17;;;;;;;167.48;41.63;;;5.20;99.90;;;;;;5025097;28;20042;-72
2021/12/28 06:21:42;;;;;;;167.77;41.75;;;5.20;99.90;;;;;;5008423;28;20033;-75
2021/12/28 06:24:08;;;;;;;150.02;38.80;;;5.10;99.90;;;;;;5016350;28;20057;-72
2021/12/28 06:26:35;;;;;;;135.05;37.40;;;5.10;99.90;;;;;;5068125;28;20041;-73
2021/12/28 06:29:03;;;;;;;131.18;37.13;;;5.10;99.90;;;;;;5044205;28;20127;-72
2021/12/28 06:31:29;;;;;;;153.02;38.92;;;5.10;99.90;;;;;;5034377;28;20049;-72
2021/12/28 06:34:01;;;;;;;154.45;39.58;;;5.10;99.90;;;;;;5066518;28;20077;-77
2021/12/28 06:36:28;;;;;;;137.73;37.10;;;5.10;99.90;;;;;;5035031;28;20137;-75
2021/12/28 06:38:54;;;;;;;132.25;37.92;;;5.00;99.90;;;;;;5024802;28;20038;-75
2021/12/28 06:41:20;;;;;;;166.48;40.65;;;5.00;99.90;;;;;;5029994;28;20045;-74
2021/12/28 06:43:49;;;;;;;137.70;37.97;;;5.00;99.90;;;;;;5017897;28;20037;-75
2021/12/28 06:46:16;;;;;;;139.82;38.53;;;5.00;99.90;;;;;;5049671;28;20042;-73
2021/12/28 06:48:41;;;;;;;127.82;36.70;;;4.90;99.90;;;;;;5056048;28;20115;-74
2021/12/28 06:51:07;;;;;;;139.07;37.70;;;5.00;99.90;;;;;;4999431;28;20497;-75
2021/12/28 06:53:34;;;;;;;134.77;36.45;;;5.00;99.90;;;;;;5050636;28;20037;-71
2021/12/28 06:55:59;;;;;;;109.15;33.10;;;5.00;99.90;;;;;;5056726;28;20404;-74
2021/12/28 06:58:25;;;;;;;119.70;35.28;;;5.00;99.90;;;;;;5053888;28;20048;-75
2021/12/28 07:00:51;;;;;;;110.47;32.85;;;5.00;99.90;;;;;;5029631;28;20868;-74
2021/12/28 07:03:17;;;;;;;106.18;33.03;;;4.90;99.90;;;;;;5023777;28;20040;-75
2021/12/28 07:05:43;;;;;;;101.03;32.20;;;4.90;99.90;;;;;;5010847;28;20049;-73
2021/12/28 07:08:08;;;;;;;115.32;31.15;;;4.90;99.90;;;;;;5019076;28;20365;-75
2021/12/28 07:10:34;;;;;;;106.13;31.23;;;4.80;99.90;;;;;;5029172;28;20046;-72
2021/12/28 07:13:00;;;;;;;119.07;32.50;;;4.80;99.90;;;;;;5020823;28;20040;-75
2021/12/28 07:15:25;;;;;;;116.55;32.38;;;4.80;99.90;;;;;;5018878;28;20041;-73
2021/12/28 07:17:51;;;;;;;108.43;31.92;;;4.80;99.90;;;;;;5006020;28;20444;-73
2021/12/28 07:20:17;;;;;;;109.75;32.30;;;4.80;99.90;;;;;;5011773;28;20080;-74
2021/12/28 07:22:43;;;;;;;112.75;30.95;;;4.80;99.90;;;;;;5037900;28;20049;-73
2021/12/28 07:25:09;;;;;;;117.50;31.10;;;4.80;99.90;;;;;;5018915;28;20049;-75
2021/12/28 07:27:36;;;;;;;83.28;28.08;;;4.80;99.90;;;;;;5036910;28;20057;-74
2021/12/28 07:30:07;;;;;;;103.45;31.58;;;5.30;99.90;;;;;;5034965;28;20054;-75
2021/12/28 07:32:32;;;;;;;89.82;29.58;;;5.10;99.90;;;;;;5017163;28;20103;-74
2021/12/28 07:34:58;;;;;;;99.13;30.60;;;4.90;99.90;;;;;;5019400;28;20418;-75
2021/12/28 07:37:23;;;;;;;98.53;29.27;;;4.90;99.90;;;;;;5017620;28;20053;-74
2021/12/28 07:39:50;;;;;;;87.90;30.80;;;4.80;99.90;;;;;;5050961;28;20041;-76
2021/12/28 07:42:17;;;;;;;104.25;31.25;;;4.90;99.90;;;;;;5035935;28;20060;-75
2021/12/28 07:44:43;;;;;;;115.80;31.13;;;4.80;99.90;;;;;;5017548;28;20045;-73
2021/12/28 07:47:09;;;;;;;99.07;29.77;;;4.90;99.90;;;;;;5023376;28;20057;-76
2021/12/28 07:49:34;;;;;;;101.97;30.90;;;5.00;99.90;;;;;;5022126;28;20121;-74
2021/12/28 07:52:00;;;;;;;99.55;30.08;;;4.90;99.90;;;;;;5003558;28;20199;-74
2021/12/28 07:54:26;;;;;;;88.32;29.60;;;4.90;99.90;;;;;;5052466;28;20119;-75
2021/12/28 07:56:52;;;;;;;97.00;29.50;;;4.90;99.90;;;;;;5016864;28;20503;-74
2021/12/28 07:59:17;;;;;;;102.45;31.38;;;4.90;99.90;;;;;;5013723;28;20045;-76
2021/12/28 08:01:43;;;;;;;101.68;30.08;;;5.00;99.90;;;;;;5045360;28;20053;-74
2021/12/28 08:04:09;;;;;;;96.60;29.35;;;5.10;99.90;;;;;;5011420;28;20107;-73
2021/12/28 08:06:35;;;;;;;98.10;29.63;;;5.10;99.90;;;;;;5001580;28;20063;-75
2021/12/28 08:09:00;;;;;;;81.72;26.35;;;5.10;99.90;;;;;;5019226;28;20056;-76
2021/12/28 08:11:27;;;;;;;86.25;27.45;;;5.10;99.90;;;;;;5018968;28;20050;-76
2021/12/28 08:13:53;;;;;;;73.95;25.85;;;5.20;99.90;;;;;;5025713;28;20067;-73
2021/12/28 08:16:19;;;;;;;80.47;25.02;;;5.60;99.90;;;;;;5014654;28;20405;-73
2021/12/28 08:18:45;;;;;;;76.97;24.58;;;5.20;99.90;;;;;;5040182;28;20045;-75
2021/12/28 08:21:11;;;;;;;83.32;23.58;;;5.20;99.90;;;;;;5030808;28;20568;-76
2021/12/28 08:23:36;;;;;;;64.05;23.70;;;5.30;99.90;;;;;;5028592;28;20049;-74
2021/12/28 08:26:02;;;;;;;69.53;22.75;;;5.40;99.90;;;;;;5012209;28;20498;-73
2021/12/28 08:28:29;;;;;;;63.78;23.02;;;5.30;99.90;;;;;;5015206;28;20458;-76
2021/12/28 08:30:56;;;;;;;73.82;23.23;;;5.30;99.90;;;;;;5019391;28;20053;-76
2021/12/28 08:33:23;;;;;;;72.78;22.80;;;5.30;99.90;;;;;;5031693;28;20053;-74
2021/12/28 08:35:49;;;;;;;65.93;23.02;;;5.40;99.90;;;;;;5033250;28;20054;-77
2021/12/28 08:38:16;;;;;;;61.15;21.45;;;5.40;99.90;;;;;;5037088;28;20045;-77
2021/12/28 08:40:43;;;;;;;66.25;22.15;;;5.50;99.90;;;;;;5042663;28;20034;-76
2021/12/28 08:43:10;;;;;;;66.38;20.98;;;5.50;99.90;;;;;;5009752;28;20076;-79
2021/12/28 08:45:37;;;;;;;62.38;22.25;;;5.50;99.90;;;;;;5031017;28;20053;-78
2021/12/28 08:48:05;;;;;;;62.35;22.30;;;5.50;99.90;;;;;;5007476;28;20076;-75
2021/12/28 08:50:31;;;;;;;52.17;21.10;;;5.60;99.90;;;;;;5015462;28;20053;-75
2021/12/28 08:52:57;;;;;;;61.90;21.17;;;5.60;99.90;;;;;;4994839;28;20058;-75
2021/12/28 08:55:23;;;;;;;50.25;20.25;;;5.80;99.90;;;;;;5037456;28;20056;-75
2021/12/28 08:57:51;;;;;;;54.28;18.42;;;5.70;99.90;;;;;;5004365;28;20057;-76
2021/12/28 09:00:24;;;;;;;57.10;19.02;;;5.80;99.90;;;;;;5001230;28;20079;-74
2021/12/28 09:02:52;;;;;;;52.50;18.50;;;5.90;99.90;;;;;;5027205;28;20055;-75
2021/12/28 09:05:18;;;;;;;40.00;16.92;;;5.90;99.90;;;;;;5013191;28;20053;-75
2021/12/28 09:07:44;;;;;;;58.53;18.60;;;6.00;99.90;;;;;;5030074;28;20079;-76
2021/12/28 09:10:10;;;;;;;52.50;18.50;;;6.10;99.90;;;;;;5019766;28;20045;-76
2021/12/28 09:12:36;;;;;;;54.92;17.70;;;6.10;99.90;;;;;;5052158;28;20046;-79
2021/12/28 09:15:03;;;;;;;50.90;15.95;;;6.20;99.90;;;;;;5057149;28;20073;-75
2021/12/28 09:17:28;;;;;;;43.35;16.42;;;6.20;99.90;;;;;;5029064;28;20081;-76
2021/12/28 09:19:54;;;;;;;33.90;13.85;;;6.40;99.90;;;;;;5011578;28;20569;-75
2021/12/28 09:22:20;;;;;;;45.92;14.05;;;6.40;99.90;;;;;;5015529;28;20041;-76
2021/12/28 09:24:45;;;;;;;47.10;13.25;;;6.40;99.90;;;;;;5032590;28;20062;-76
2021/12/28 09:27:11;;;;;;;33.85;12.60;;;6.40;99.90;;;;;;5045680;28;20060;-76
2021/12/28 09:29:37;;;;;;;46.92;13.85;;;6.40;99.90;;;;;;5030959;28;20060;-75
2021/12/28 09:32:03;;;;;;;39.22;13.27;;;6.40;99.90;;;;;;5015318;28;20083;-76
2021/12/28 09:34:29;;;;;;;40.38;12.95;;;6.30;99.90;;;;;;5015587;28;20062;-76
2021/12/28 09:36:56;;;;;;;34.45;12.15;;;6.40;99.90;;;;;;5001260;28;20049;-77
2021/12/28 09:39:26;;;;;;;38.78;12.88;;;6.40;99.90;;;;;;5013902;28;20069;-76
2021/12/28 09:41:54;;;;;;;40.42;12.07;;;6.40;99.90;;;;;;5048542;28;20049;-78
2021/12/28 09:44:21;;;;;;;41.00;12.23;;;6.50;99.90;;;;;;5014845;28;20464;-77
2021/12/28 09:46:47;;;;;;;37.15;12.48;;;6.60;99.90;;;;;;5052038;28;20115;-77
2021/12/28 09:49:13;;;;;;;31.23;11.90;;;6.60;99.90;;;;;;5050717;28;20077;-78
2021/12/28 09:51:39;;;;;;;37.20;10.80;;;6.60;99.90;;;;;;5016327;28;20070;-76
2021/12/28 09:54:05;;;;;;;38.55;12.60;;;6.70;99.90;;;;;;5028634;28;20072;-76
2021/12/28 09:56:31;;;;;;;39.95;11.88;;;6.70;99.90;;;;;;5055494;28;20049;-76
2021/12/28 09:58:58;;;;;;;33.22;11.07;;;6.80;99.90;;;;;;5031676;28;20122;-76
2021/12/28 10:01:23;;;;;;;36.85;10.68;;;6.80;99.90;;;;;;5069639;28;20048;-75
2021/12/28 10:03:49;;;;;;;32.33;10.70;;;6.80;99.90;;;;;;5078847;28;20041;-76
2021/12/28 10:06:19;;;;;;;34.78;11.13;;;6.80;99.90;;;;;;5046954;28;20077;-77
2021/12/28 10:08:46;;;;;;;42.22;11.02;;;6.80;99.90;;;;;;5037606;28;20086;-77
2021/12/28 10:11:13;;;;;;;34.80;10.80;;;6.80;99.90;;;;;;5018765;28;20049;-76
2021/12/28 10:13:38;;;;;;;35.08;10.30;;;6.90;99.90;;;;;;5036743;28;20128;-76
2021/12/28 10:16:04;;;;;;;36.63;10.65;;;6.90;99.90;;;;;;5027245;28;20465;-75
2021/12/28 10:18:30;;;;;;;34.63;10.40;;;6.90;99.90;;;;;;5059308;28;20053;-78
2021/12/28 10:20:59;;;;;;;28.70;9.02;;;6.90;99.90;;;;;;5024048;28;20080;-76
2021/12/28 10:23:31;;;;;;;27.63;9.27;;;6.90;99.90;;;;;;5032753;28;20427;-78
2021/12/28 10:25:59;;;;;;;28.90;9.55;;;6.90;99.90;;;;;;5043812;28;20111;-75
2021/12/28 10:28:32;;;;;;;30.42;8.63;;;6.90;99.90;;;;;;5017489;28;20058;-78
2021/12/28 10:31:16;;;;;;;33.88;9.00;;;7.00;99.90;;;;;;5059002;28;20128;-78
2021/12/28 10:33:42;;;;;;;30.30;9.23;;;7.00;99.90;;;;;;5043189;28;20082;-77
2021/12/28 10:36:11;;;;;;;30.55;8.73;;;7.00;99.90;;;;;;5054377;28;20056;-78
2021/12/28 10:38:46;;;;;;;27.92;8.75;;;7.00;99.90;;;;;;5029074;28;20079;-78
2021/12/28 10:41:15;;;;;;;;;;;7.10;99.90;;;;;;5037032;28;20120;-78
2021/12/28 10:43:45;;;;;;;28.40;8.57;;;7.00;99.90;;;;;;5036400;28;20023;-77
2021/12/28 10:46:25;;;;;;;33.20;8.88;;;7.00;99.90;;;;;;5021632;28;20046;-76
2021/12/28 10:48:55;;;;;;;27.85;8.57;;;7.00;99.90;;;;;;5026203;28;20437;-79
2021/12/28 10:51:31;;;;;;;33.88;9.23;;;7.00;99.90;;;;;;5037054;28;20446;-78
2021/12/28 10:54:12;;;;;;;32.65;8.75;;;7.00;99.90;;;;;;5003279;28;20120;-75
2021/12/28 10:56:51;;;;;;;35.42;9.93;;;7.00;99.90;;;;;;5054388;28;20084;-77
2021/12/28 10:59:26;;;;;;;27.98;9.07;;;7.00;99.90;;;;;;5015753;28;20116;-79
2021/12/28 11:01:52;;;;;;;31.55;9.75;;;7.00;99.90;;;;;;5016854;28;20345;-77
2021/12/28 11:04:18;;;;;;;33.97;9.43;;;7.00;99.90;;;;;;5031151;28;20400;-77
2021/12/28 11:06:50;;;;;;;34.85;10.38;;;7.00;99.90;;;;;;5011901;28;20053;-76
2021/12/28 11:09:19;;;;;;;31.27;10.20;;;7.10;99.90;;;;;;5030929;28;20049;-76
2021/12/28 11:11:46;;;;;;;28.88;9.30;;;7.00;99.90;;;;;;5020456;28;20112;-77
2021/12/28 11:14:16;;;;;;;27.98;9.32;;;6.90;99.90;;;;;;5029298;28;20437;-76
2021/12/28 11:16:58;;;;;;;33.25;10.52;;;7.00;99.90;;;;;;5033575;28;20050;-78
2021/12/28 11:19:33;;;;;;;33.53;10.30;;;7.00;99.90;;;;;;5020050;28;20129;-76
2021/12/28 11:22:01;;;;;;;29.13;10.35;;;7.10;99.90;;;;;;5012989;28;20058;-77
2021/12/28 11:24:50;;;;;;;34.65;10.68;;;7.10;99.90;;;;;;5014148;28;20053;-78
2021/12/28 11:27:24;;;;;;;31.00;9.82;;;7.10;99.90;;;;;;5038763;28;20069;-78
2021/12/28 11:29:50;;;;;;;38.97;11.60;;;7.10;99.90;;;;;;5062732;28;20359;-78
2021/12/28 11:32:18;;;;;;;26.40;9.35;;;7.10;99.90;;;;;;5052717;28;20055;-79
2021/12/28 11:34:45;;;;;;;22.15;9.93;;;7.10;99.90;;;;;;5064510;28;20128;-78
2021/12/28 11:37:20;;;;;;;24.45;9.43;;;7.10;99.90;;;;;;5010525;28;20049;-78
2021/12/28 11:39:53;;;;;;;21.55;9.73;;;7.10;99.90;;;;;;5050846;28;20049;-79
2021/12/28 11:42:20;;;;;;;27.80;10.38;;;7.20;99.90;;;;;;5023199;28;20148;-79
2021/12/28 11:44:46;;;;;;;22.52;10.65;;;7.40;99.90;;;;;;5035280;28;20377;-76
2021/12/28 11:47:14;;;;;;;22.50;9.50;;;7.30;99.90;;;;;;4997103;28;20478;-75
2021/12/28 11:49:41;;;;;;;27.15;10.55;;;7.30;99.90;;;;;;5017605;28;20091;-76
2021/12/28 11:52:11;;;;;;;23.55;10.23;;;7.30;99.90;;;;;;5064385;28;20107;-77
2021/12/28 11:54:40;;;;;;;24.25;10.98;;;7.40;99.90;;;;;;5010789;28;20156;-74
2021/12/28 11:57:10;;;;;;;26.73;11.07;;;7.40;99.90;;;;;;5004468;28;20052;-79
2021/12/28 11:59:36;;;;;;;25.58;11.15;;;7.40;99.90;;;;;;5021515;28;20033;-79
2021/12/28 12:02:07;;;;;;;26.67;10.32;;;7.30;99.90;;;;;;5045454;28;20338;-82
2021/12/28 12:04:32;;;;;;;23.95;10.68;;;7.40;99.90;;;;;;5019203;28;20112;-77
2021/12/28 12:07:14;;;;;;;19.13;9.48;;;7.50;99.90;;;;;;5015086;28;20050;-77
2021/12/28 12:10:09;;;;;;;24.63;10.70;;;7.40;99.90;;;;;;5018187;28;20065;-77
2021/12/28 12:12:44;;;;;;;19.05;10.38;;;7.50;99.90;;;;;;5021900;28;20144;-77
2021/12/28 12:15:11;;;;;;;20.23;9.98;;;7.50;99.90;;;;;;5032245;28;20051;-78
2021/12/28 12:17:41;;;;;;;23.73;10.43;;;7.50;99.90;;;;;;5029498;28;20078;-78
2021/12/28 12:20:21;;;;;;;21.55;9.85;;;7.50;99.90;;;;;;5015294;28;20064;-78
2021/12/28 12:23:12;;;;;;;13.63;8.35;;;7.60;99.90;;;;;;5014832;28;20044;-78
2021/12/28 12:25:51;;;;;;;22.70;10.05;;;7.60;99.90;;;;;;4990498;28;20082;-76
2021/12/28 12:28:47;;;;;;;16.02;8.93;;;7.60;99.90;;;;;;4989685;28;20409;-77
2021/12/28 12:31:32;;;;;;;15.13;8.82;;;7.60;99.90;;;;;;4969173;28;20485;-77
2021/12/28 12:34:00;;;;;;;25.63;8.23;;;7.60;99.90;;;;;;4973342;28;20465;-77
2021/12/28 12:36:37;;;;;;;17.13;8.82;;;7.60;99.90;;;;;;4989181;28;20107;-76
2021/12/28 12:39:05;;;;;;;19.77;8.65;;;7.60;99.90;;;;;;4990398;28;20046;-75